Time;durP1;ratioP1;P1;durP2;ratioP2;P2;SDS_P1;SDS_P2;PMS_P1;PMS_P2;Temp;Humidity;BMP_temperature;BMP_pressure;BME280_temperature;BME280_humidity;BME280_pressure;Samples;Min_cycle;Max_cycle;Signal;HPM_P1;HPM_P2
2021/09/05 00:00:55;;;;;;;;;28.33;24.67;;;;;21.26;68.74;101301.03;4973738;28;45442;-63
2021/09/05 00:03:21;;;;;;;;;25.33;22.00;;;;;21.24;69.23;101296.84;4972722;28;45322;-64
2021/09/05 00:05:46;;;;;;;;;25.67;23.33;;;;;21.23;69.26;101296.00;4973241;28;46293;-63
2021/09/05 00:08:11;;;;;;;;;26.67;22.33;;;;;21.20;69.65;101295.50;4973413;28;45413;-63
2021/09/05 00:10:36;;;;;;;;;28.00;26.67;;;;;21.16;69.48;101284.34;4967931;28;45390;-63
2021/09/05 00:13:02;;;;;;;;;25.67;22.00;;;;;21.13;69.79;101278.50;4972900;28;45566;-63
2021/09/05 00:15:27;;;;;;;;;22.00;19.33;;;;;21.09;69.63;101275.34;4972623;28;45930;-64
2021/09/05 00:17:53;;;;;;;;;29.33;25.33;;;;;21.08;70.06;101274.50;4972737;28;45428;-62
2021/09/05 00:20:18;;;;;;;;;29.00;24.00;;;;;21.06;69.61;101275.69;4973925;28;45333;-63
2021/09/05 00:22:46;;;;;;;;;24.33;22.33;;;;;21.01;69.97;101270.84;4973767;28;45381;-63
2021/09/05 00:25:13;;;;;;;;;24.33;23.33;;;;;21.00;69.86;101279.84;4973030;28;46199;-63
2021/09/05 00:27:38;;;;;;;;;28.67;27.00;;;;;20.99;70.20;101283.56;4972697;28;45342;-61
2021/09/05 00:30:04;;;;;;;;;25.33;23.33;;;;;20.98;69.91;101286.38;4973519;28;45566;-63
2021/09/05 00:32:30;;;;;;;;;26.00;23.00;;;;;20.96;70.28;101288.38;4972214;28;45603;-65
2021/09/05 00:34:55;;;;;;;;;24.00;22.00;;;;;20.93;70.34;101282.38;4974270;28;47154;-64
2021/09/05 00:37:20;;;;;;;;;25.67;21.00;;;;;20.91;70.34;101284.41;4972972;28;50575;-64
2021/09/05 00:39:46;;;;;;;;;26.33;24.33;;;;;20.92;70.01;101293.22;4972936;28;45322;-63
2021/09/05 00:42:11;;;;;;;;;23.33;22.33;;;;;20.89;70.45;101286.38;4973245;28;53643;-63
2021/09/05 00:44:36;;;;;;;;;22.67;18.67;;;;;20.84;70.21;101283.38;4972893;28;45313;-64
2021/09/05 00:47:02;;;;;;;;;27.67;26.33;;;;;20.81;70.08;101283.72;4974216;28;45296;-63
2021/09/05 00:49:27;;;;;;;;;22.33;19.00;;;;;20.79;70.47;101291.06;4969393;28;45844;-63
2021/09/05 00:51:53;;;;;;;;;21.00;19.00;;;;;20.77;70.10;101290.38;4973303;28;45674;-62
2021/09/05 00:54:19;;;;;;;;;21.67;19.33;;;;;20.76;70.57;101291.41;4973078;28;45346;-63
2021/09/05 00:56:45;;;;;;;;;23.67;22.00;;;;;20.72;70.24;101282.03;4973516;28;45595;-63
2021/09/05 00:59:15;;;;;;;;;21.00;20.33;;;;;20.71;70.09;101280.41;4974135;28;45384;-62
2021/09/05 01:01:40;;;;;;;;;27.67;23.00;;;;;20.66;70.24;101285.38;4973224;28;45306;-64
2021/09/05 01:04:07;;;;;;;;;21.33;17.67;;;;;20.66;70.77;101290.72;4973274;28;45959;-61
2021/09/05 01:06:34;;;;;;;;;20.67;17.00;;;;;20.60;70.81;101287.69;4972926;28;46081;-62
2021/09/05 01:09:00;;;;;;;;;24.00;23.00;;;;;20.58;70.63;101286.19;4969445;28;45628;-66
2021/09/05 01:11:26;;;;;;;;;33.67;26.33;;;;;20.54;70.97;101282.19;4973274;28;45314;-66
2021/09/05 01:13:51;;;;;;;;;25.67;24.33;;;;;20.52;71.22;101277.00;4972513;28;46077;-67
2021/09/05 01:16:25;;;;;;;;;29.00;24.33;;;;;20.53;70.63;101273.34;4973090;28;45504;-66
2021/09/05 01:18:51;;;;;;;;;21.00;17.00;;;;;20.52;70.66;101281.53;4975386;28;45643;-66
2021/09/05 01:21:16;;;;;;;;;22.33;21.00;;;;;20.49;71.03;101277.34;4975855;28;45480;-66
2021/09/05 01:23:42;;;;;;;;;28.00;23.33;;;;;20.46;70.88;101280.38;4976720;28;45750;-65
2021/09/05 01:26:08;;;;;;;;;20.00;19.00;;;;;20.44;71.19;101293.84;4971986;28;45521;-66
2021/09/05 01:28:33;;;;;;;;;21.00;21.00;;;;;20.41;71.13;101293.38;4976256;28;45406;-66
2021/09/05 01:30:59;;;;;;;;;24.33;21.00;;;;;20.38;71.10;101302.53;4975812;28;45830;-66
2021/09/05 01:33:24;;;;;;;;;25.33;19.67;;;;;20.37;71.51;101292.00;4974872;28;47405;-65
2021/09/05 01:35:50;;;;;;;;;18.67;17.67;;;;;20.36;71.48;101293.03;4978020;28;45391;-74
2021/09/05 01:38:15;;;;;;;;;23.33;20.33;;;;;20.37;71.44;101300.00;4981227;28;45350;-74
2021/09/05 01:40:41;;;;;;;;;27.33;20.33;;;;;20.37;71.51;101294.66;4981801;28;45322;-74
2021/09/05 01:43:06;;;;;;;;;19.67;18.00;;;;;20.35;71.70;101291.34;4983207;28;46611;-73
2021/09/05 01:45:32;;;;;;;;;22.33;17.67;;;;;20.35;71.64;101294.00;4981759;28;45401;-73
2021/09/05 01:47:57;;;;;;;;;21.00;21.00;;;;;20.35;71.22;101291.34;4976511;28;45404;-74
2021/09/05 01:50:22;;;;;;;;;13.33;13.33;;;;;20.33;71.32;101293.34;4976041;28;45353;-72
2021/09/05 01:52:48;;;;;;;;;24.67;17.33;;;;;20.34;71.29;101303.84;4977031;28;45988;-73
2021/09/05 01:55:14;;;;;;;;;20.00;19.33;;;;;20.32;70.97;101297.84;4975450;28;45545;-73
2021/09/05 01:57:39;;;;;;;;;18.00;17.67;;;;;20.31;71.18;101306.03;4975594;28;45435;-72
2021/09/05 02:00:06;;;;;;;;;12.33;11.67;;;;;20.30;71.19;101301.69;4975260;28;45440;-73
2021/09/05 02:02:31;;;;;;;;;20.00;17.00;;;;;20.27;71.33;101301.00;4975437;28;46066;-73
2021/09/05 02:04:57;;;;;;;;;22.67;20.33;;;;;20.26;71.46;101303.81;4977726;28;45648;-73
2021/09/05 02:07:22;;;;;;;;;20.00;17.67;;;;;20.26;71.68;101304.69;4975554;28;45446;-73
2021/09/05 02:09:48;;;;;;;;;20.33;20.33;;;;;20.25;71.50;101303.00;4976163;28;45381;-73
2021/09/05 02:12:14;;;;;;;;;19.33;18.33;;;;;20.25;71.34;101299.50;4976324;28;50185;-72
2021/09/05 02:14:39;;;;;;;;;21.00;18.67;;;;;20.23;71.67;101299.66;4959812;28;45554;-72
2021/09/05 02:17:05;;;;;;;;;18.33;18.33;;;;;20.22;71.59;101305.97;4977274;28;45689;-73
2021/09/05 02:19:33;;;;;;;;;15.67;14.67;;;;;20.21;71.60;101312.34;4976733;28;45507;-73
2021/09/05 02:21:58;;;;;;;;;17.67;17.67;;;;;20.22;71.76;101307.81;4976186;28;47245;-73
2021/09/05 02:24:24;;;;;;;;;19.00;18.00;;;;;20.20;71.56;101305.31;4976242;28;45434;-73
2021/09/05 02:26:49;;;;;;;;;21.00;18.00;;;;;20.21;71.98;101304.34;4976694;28;45404;-74
2021/09/05 02:29:14;;;;;;;;;18.33;15.00;;;;;20.19;72.06;101298.31;4976502;28;45424;-72
2021/09/05 02:31:39;;;;;;;;;19.33;18.33;;;;;20.21;71.34;101307.00;4976388;28;45730;-71
2021/09/05 02:34:05;;;;;;;;;20.67;18.33;;;;;20.18;72.11;101296.66;4976147;28;45405;-73
2021/09/05 02:36:30;;;;;;;;;20.67;19.00;;;;;20.21;72.14;101296.34;4976599;28;45345;-73
2021/09/05 02:38:55;;;;;;;;;20.00;18.33;;;;;20.21;71.94;101301.66;4975996;28;45490;-72
2021/09/05 02:41:21;;;;;;;;;18.33;18.33;;;;;20.21;71.63;101299.00;4976367;28;45910;-73
2021/09/05 02:43:46;;;;;;;;;25.67;22.67;;;;;20.21;72.01;101299.00;4976353;28;45318;-72
2021/09/05 02:46:12;;;;;;;;;21.00;18.67;;;;;20.20;71.98;101305.31;4976350;28;45479;-73
2021/09/05 02:48:37;;;;;;;;;19.00;17.33;;;;;20.17;72.20;101297.63;4976644;28;45400;-74
2021/09/05 02:51:02;;;;;;;;;23.00;21.00;;;;;20.20;72.42;101302.66;4975486;28;49224;-75
2021/09/05 02:53:28;;;;;;;;;20.33;18.00;;;;;20.19;72.38;101297.50;4976438;28;45385;-73
2021/09/05 02:55:53;;;;;;;;;18.33;17.33;;;;;20.18;72.39;101307.31;4976646;28;45445;-72
2021/09/05 02:58:18;;;;;;;;;20.00;18.67;;;;;20.15;71.74;101302.31;4976024;28;45469;-73
2021/09/05 03:00:43;;;;;;;;;19.67;18.67;;;;;20.14;71.85;101299.81;4976612;28;45697;-73
2021/09/05 03:03:09;;;;;;;;;20.00;18.67;;;;;20.12;72.50;101302.63;4975914;28;45287;-73
2021/09/05 03:05:34;;;;;;;;;21.00;19.00;;;;;20.11;72.11;101301.81;4976376;28;45306;-73
2021/09/05 03:08:00;;;;;;;;;19.67;18.00;;;;;20.08;72.08;101302.13;4976187;28;45598;-72
2021/09/05 03:10:25;;;;;;;;;22.33;20.33;;;;;20.06;72.02;101304.13;4975372;28;46324;-70
2021/09/05 03:12:50;;;;;;;;;18.67;17.00;;;;;20.05;72.10;101299.78;4976018;28;45355;-72
2021/09/05 03:15:16;;;;;;;;;21.00;20.00;;;;;20.06;71.85;101305.97;4975805;28;45545;-72
2021/09/05 03:17:41;;;;;;;;;22.67;17.33;;;;;20.05;72.37;101297.09;4976191;28;45357;-71
2021/09/05 03:20:07;;;;;;;;;21.33;19.00;;;;;20.04;72.14;101291.94;4975901;28;45250;-73
2021/09/05 03:22:34;;;;;;;;;19.33;17.67;;;;;20.03;72.20;101300.94;4975386;28;45330;-72
2021/09/05 03:24:59;;;;;;;;;18.00;18.00;;;;;20.03;72.11;101295.59;4975624;28;45326;-73
2021/09/05 03:27:25;;;;;;;;;23.33;20.67;;;;;20.02;71.92;101296.59;4974742;28;45496;-73
2021/09/05 03:29:50;;;;;;;;;22.33;17.67;;;;;20.04;71.73;101299.94;4975443;28;46370;-73
2021/09/05 03:32:15;;;;;;;;;19.67;18.67;;;;;20.02;72.18;101294.78;4975731;28;45274;-72
2021/09/05 03:34:41;;;;;;;;;19.67;18.00;;;;;20.02;71.86;101296.59;4975217;28;45549;-73
2021/09/05 03:37:06;;;;;;;;;21.33;16.33;;;;;20.05;71.77;101290.97;4974870;28;45443;-72
2021/09/05 03:39:33;;;;;;;;;19.67;17.67;;;;;20.06;71.86;101287.28;4974691;28;46524;-73
2021/09/05 03:41:58;;;;;;;;;16.33;16.33;;;;;20.06;71.84;101281.97;4974760;28;45309;-72
2021/09/05 03:44:23;;;;;;;;;20.33;15.67;;;;;20.08;71.54;101287.94;4976246;28;45467;-73
2021/09/05 03:46:49;;;;;;;;;18.67;14.67;;;;;20.09;71.78;101292.28;4975815;28;45565;-72
2021/09/05 03:49:15;;;;;;;;;23.33;18.33;;;;;20.11;71.84;101288.47;4974932;28;47039;-73
2021/09/05 03:51:40;;;;;;;;;23.00;21.67;;;;;20.13;71.92;101288.28;4974837;28;45246;-73
2021/09/05 03:54:05;;;;;;;;;17.33;15.33;;;;;20.13;71.48;101288.28;4975097;28;45510;-73
2021/09/05 03:56:31;;;;;;;;;22.33;19.67;;;;;20.13;71.57;101287.47;4975067;28;45471;-73
2021/09/05 03:58:58;;;;;;;;;16.67;15.00;;;;;20.11;71.43;101284.97;4976188;28;46930;-73
2021/09/05 04:01:23;;;;;;;;;14.67;13.33;;;;;20.12;71.38;101286.63;4975104;28;45278;-74
2021/09/05 04:03:48;;;;;;;;;17.33;17.33;;;;;20.12;71.34;101291.97;4975191;28;45301;-73
2021/09/05 04:06:14;;;;;;;;;20.33;17.00;;;;;20.09;71.70;101287.78;4990033;28;45614;-73
2021/09/05 04:08:42;;;;;;;;;17.67;17.00;;;;;20.11;71.82;101295.66;4974947;28;46113;-73
2021/09/05 04:11:08;;;;;;;;;19.67;14.67;;;;;20.11;71.69;101295.66;4975480;28;45451;-73
2021/09/05 04:13:34;;;;;;;;;16.67;16.33;;;;;20.11;71.81;101298.31;4974841;28;45344;-73
2021/09/05 04:16:00;;;;;;;;;17.00;15.33;;;;;20.12;71.40;101297.28;4974934;28;45381;-73
2021/09/05 04:18:25;;;;;;;;;18.00;15.00;;;;;20.13;71.58;101293.63;4974354;28;45424;-73
2021/09/05 04:20:50;;;;;;;;;17.00;15.00;;;;;20.13;71.22;101298.97;4974751;28;45740;-72
2021/09/05 04:23:16;;;;;;;;;18.67;16.33;;;;;20.15;71.50;101302.31;4974832;28;45388;-73
2021/09/05 04:25:41;;;;;;;;;18.67;17.67;;;;;20.15;71.63;101312.13;4975356;28;46228;-73
2021/09/05 04:28:06;;;;;;;;;19.00;15.67;;;;;20.15;71.50;101306.78;4974506;28;46072;-73
2021/09/05 04:30:32;;;;;;;;;13.33;13.33;;;;;20.13;71.35;101303.47;4974642;28;45686;-73
2021/09/05 04:32:57;;;;;;;;;17.33;17.33;;;;;20.10;71.40;101300.13;4975158;28;45740;-72
2021/09/05 04:35:22;;;;;;;;;18.33;16.00;;;;;20.11;71.23;101306.31;4975040;28;45369;-72
2021/09/05 04:37:48;;;;;;;;;18.67;18.33;;;;;20.10;71.05;101309.97;4974160;28;45885;-73
2021/09/05 04:40:13;;;;;;;;;19.33;16.67;;;;;20.05;70.94;101307.78;4974160;28;45593;-72
2021/09/05 04:42:39;;;;;;;;;19.67;18.00;;;;;20.04;70.98;101313.28;4989803;28;45458;-72
2021/09/05 04:45:04;;;;;;;;;16.33;15.33;;;;;20.03;71.26;101314.28;4975331;28;45383;-72
2021/09/05 04:47:30;;;;;;;;;17.67;17.00;;;;;20.00;70.88;101314.59;4974162;28;47408;-72
2021/09/05 04:49:55;;;;;;;;;19.33;16.33;;;;;19.97;71.40;101314.91;4975242;28;45403;-72
2021/09/05 04:52:21;;;;;;;;;15.33;15.33;;;;;19.98;71.66;101327.25;4974633;28;45527;-73
2021/09/05 04:54:46;;;;;;;;;17.67;17.33;;;;;19.98;71.26;101327.25;4977760;28;45298;-72
2021/09/05 04:57:11;;;;;;;;;15.00;15.00;;;;;19.98;71.40;101332.59;4978069;28;46894;-72
2021/09/05 04:59:37;;;;;;;;;14.67;14.00;;;;;19.99;71.13;101328.94;4977866;28;45433;-73
2021/09/05 05:02:02;;;;;;;;;17.00;14.00;;;;;20.01;71.61;101334.94;4977835;28;45404;-73
2021/09/05 05:04:28;;;;;;;;;14.67;14.67;;;;;20.01;71.61;101337.63;4978202;28;45408;-73
2021/09/05 05:06:53;;;;;;;;;15.00;13.67;;;;;20.00;71.15;101339.41;4976744;28;46018;-73
2021/09/05 05:09:18;;;;;;;;;18.33;17.00;;;;;20.00;71.52;101341.28;4977719;28;45244;-73
2021/09/05 05:11:44;;;;;;;;;17.33;17.33;;;;;19.99;71.13;101340.41;4977773;28;45408;-73
2021/09/05 05:14:11;;;;;;;;;14.33;13.00;;;;;20.01;71.48;101348.28;4978356;28;45359;-73
2021/09/05 05:16:36;;;;;;;;;20.00;17.33;;;;;20.02;71.75;101349.91;4977221;28;46346;-72
2021/09/05 05:19:02;;;;;;;;;17.67;16.00;;;;;20.02;71.89;101350.78;4977240;28;45374;-74
2021/09/05 05:21:28;;;;;;;;;20.33;17.33;;;;;20.00;71.21;101357.25;4977457;28;45276;-72
2021/09/05 05:23:55;;;;;;;;;19.00;16.33;;;;;20.00;71.90;101359.94;4978506;28;45326;-71
2021/09/05 05:26:20;;;;;;;;;22.00;17.67;;;;;19.98;72.10;101365.44;4978427;28;46266;-72
2021/09/05 05:28:46;;;;;;;;;17.67;15.33;;;;;20.00;71.39;101367.94;4979225;28;45441;-72
2021/09/05 05:31:11;;;;;;;;;23.33;19.00;;;;;20.02;72.02;101365.91;4976059;28;45414;-72
2021/09/05 05:33:37;;;;;;;;;18.67;17.33;;;;;20.03;71.92;101362.25;4977514;28;45390;-72
2021/09/05 05:36:02;;;;;;;;;21.00;18.00;;;;;20.02;71.29;101369.44;4977101;28;45424;-72
2021/09/05 05:38:28;;;;;;;;;23.67;20.00;;;;;19.99;71.74;101367.06;4977371;28;45424;-73
2021/09/05 05:40:53;;;;;;;;;17.67;17.33;;;;;19.97;71.23;101373.56;4978219;28;45405;-71
2021/09/05 05:43:18;;;;;;;;;22.33;19.33;;;;;19.91;71.87;101370.53;4977641;28;45475;-72
2021/09/05 05:45:44;;;;;;;;;20.00;18.00;;;;;19.89;71.93;101369.88;4977282;28;45378;-72
2021/09/05 05:48:11;;;;;;;;;11.33;10.00;;;;;19.88;71.75;101372.72;4976368;28;45491;-73
2021/09/05 05:50:36;;;;;;;;;20.00;15.33;;;;;19.88;71.72;101378.06;4977393;28;45518;-73
2021/09/05 05:53:02;;;;;;;;;19.33;17.67;;;;;19.86;71.61;101380.88;4977968;28;45317;-72
2021/09/05 05:55:27;;;;;;;;;21.67;17.33;;;;;19.89;71.71;101379.72;4977490;28;46307;-72
2021/09/05 05:57:52;;;;;;;;;17.00;15.67;;;;;19.91;72.21;101380.38;4976013;28;45489;-73
2021/09/05 06:00:19;;;;;;;;;19.00;14.33;;;;;19.92;72.02;101380.22;4977053;28;45887;-71
2021/09/05 06:02:44;;;;;;;;;20.67;17.67;;;;;19.96;71.88;101383.41;4977418;28;45419;-72
2021/09/05 06:05:10;;;;;;;;;20.33;15.33;;;;;19.98;71.58;101380.56;4977284;28;45472;-72
2021/09/05 06:07:36;;;;;;;;;20.33;17.67;;;;;20.02;71.74;101384.59;4977198;28;45290;-73
2021/09/05 06:10:02;;;;;;;;;18.33;16.33;;;;;20.03;71.88;101380.94;4977053;28;45552;-73
2021/09/05 06:12:27;;;;;;;;;21.00;16.67;;;;;20.04;71.71;101387.94;4976299;28;47339;-72
2021/09/05 06:14:52;;;;;;;;;17.67;16.00;;;;;20.06;71.98;101394.78;4977459;28;45321;-72
2021/09/05 06:17:18;;;;;;;;;20.00;17.00;;;;;20.08;71.46;101392.81;4978246;28;45455;-72
2021/09/05 06:19:43;;;;;;;;;18.33;18.33;;;;;20.09;71.26;101394.44;4977174;28;45475;-72
2021/09/05 06:22:09;;;;;;;;;19.00;16.00;;;;;20.10;71.49;101396.13;4976974;28;45454;-72
2021/09/05 06:24:34;;;;;;;;;18.00;15.67;;;;;20.13;71.07;101402.16;4991843;28;46036;-73
2021/09/05 06:27:00;;;;;;;;;18.33;17.33;;;;;20.13;70.96;101404.81;4976884;28;45441;-72
2021/09/05 06:29:25;;;;;;;;;21.00;18.67;;;;;20.15;71.17;101406.34;4977696;28;45838;-73
2021/09/05 06:31:50;;;;;;;;;15.00;14.00;;;;;20.16;70.74;101409.81;4977436;28;45437;-71
2021/09/05 06:34:16;;;;;;;;;16.67;15.00;;;;;20.17;70.33;101415.00;4975096;28;45974;-71
2021/09/05 06:36:41;;;;;;;;;13.25;13.25;;;;;20.21;69.81;101415.50;4976172;28;45632;-72
2021/09/05 06:39:06;;;;;;;;;18.33;14.00;;;;;20.22;69.41;101419.84;4975686;28;45298;-72
2021/09/05 06:41:32;;;;;;;;;17.50;13.25;;;;;20.25;69.57;101425.72;4976651;28;45297;-73
2021/09/05 06:43:57;;;;;;;;;14.00;13.00;;;;;20.28;69.21;101421.88;4977278;28;45296;-71
2021/09/05 06:46:23;;;;;;;;;16.50;14.25;;;;;20.35;69.06;101424.75;4976633;28;45572;-73
2021/09/05 06:48:49;;;;;;;;;16.33;14.00;;;;;20.40;69.51;101425.09;4975005;28;45398;-72
2021/09/05 06:51:14;;;;;;;;;13.00;13.00;;;;;20.45;68.62;101426.25;4974834;28;47059;-72
2021/09/05 06:53:40;;;;;;;;;14.67;13.00;;;;;20.54;68.41;101440.47;4974946;28;46204;-72
2021/09/05 06:56:06;;;;;;;;;13.33;13.00;;;;;20.63;68.37;101438.69;4976877;28;45508;-72
2021/09/05 06:58:31;;;;;;;;;16.25;14.75;;;;;20.70;67.71;101439.72;4976313;28;45565;-73
2021/09/05 07:00:56;;;;;;;;;16.75;12.00;;;;;20.78;67.45;101438.88;4976326;28;45610;-73
2021/09/05 07:03:22;;;;;;;;;13.75;13.25;;;;;20.85;66.99;101439.91;4975954;28;45615;-73
2021/09/05 07:05:47;;;;;;;;;14.00;12.75;;;;;20.91;66.94;101451.75;4976332;28;45515;-72
2021/09/05 07:08:13;;;;;;;;;14.00;13.25;;;;;20.98;66.85;101443.94;4976743;28;45431;-72
2021/09/05 07:10:40;;;;;;;;;18.50;13.75;;;;;21.03;66.09;101454.94;4976383;28;45525;-74
2021/09/05 07:13:05;;;;;;;;;12.50;12.50;;;;;21.09;66.22;101448.94;4975995;28;46109;-72
2021/09/05 07:15:31;;;;;;;;;16.00;16.00;;;;;21.14;66.13;101451.97;4975298;28;45364;-73
2021/09/05 07:17:56;;;;;;;;;14.00;14.00;;;;;21.18;66.08;101455.97;4976080;28;45507;-72
2021/09/05 07:20:22;;;;;;;;;19.00;18.00;;;;;21.22;65.84;101451.94;4976085;28;46206;-73
2021/09/05 07:22:47;;;;;;;;;16.75;13.75;;;;;21.29;65.55;101460.16;4976522;28;46106;-72
2021/09/05 07:25:12;;;;;;;;;14.00;13.75;;;;;21.33;65.28;101463.31;4974749;28;45491;-73
2021/09/05 07:27:38;;;;;;;;;16.25;15.50;;;;;21.38;65.50;101469.00;4975852;28;45477;-73
2021/09/05 07:30:05;;;;;;;;;19.75;16.75;;;;;21.44;65.65;101468.31;4976231;28;45555;-73
2021/09/05 07:32:30;;;;;;;;;14.75;11.75;;;;;21.52;65.38;101471.00;4975416;28;46095;-72
2021/09/05 07:34:56;;;;;;;;;14.00;13.00;;;;;21.61;65.39;101469.19;4976395;28;45382;-72
2021/09/05 07:37:21;;;;;;;;;13.00;13.00;;;;;21.74;65.14;101469.50;4975811;28;45411;-72
2021/09/05 07:39:46;;;;;;;;;15.75;13.25;;;;;21.86;64.52;101471.81;4975766;28;45329;-71
2021/09/05 07:42:12;;;;;;;;;15.00;14.00;;;;;21.95;64.52;101470.78;4975478;28;45512;-72
2021/09/05 07:44:37;;;;;;;;;21.00;14.00;;;;;22.03;64.00;101477.94;4975786;28;45365;-71
2021/09/05 07:47:03;;;;;;;;;14.75;14.75;;;;;22.09;64.02;101477.28;4976849;28;45459;-73
2021/09/05 07:49:28;;;;;;;;;17.00;14.25;;;;;22.15;63.68;101487.28;4975681;28;45455;-71
2021/09/05 07:51:54;;;;;;;;;19.50;17.25;;;;;22.20;63.54;101484.94;4975418;28;46440;-72
2021/09/05 07:54:19;;;;;;;;;14.50;12.50;;;;;22.29;63.83;101488.44;4975276;28;45500;-75
2021/09/05 07:56:45;;;;;;;;;17.75;16.00;;;;;22.34;63.27;101486.06;4975754;28;45227;-72
2021/09/05 07:59:10;;;;;;;;;18.00;14.50;;;;;22.38;62.97;101482.06;4976442;28;45378;-73
2021/09/05 08:01:36;;;;;;;;;12.75;11.25;;;;;22.43;63.12;101489.53;4974905;28;46084;-72
2021/09/05 08:04:01;;;;;;;;;16.00;15.00;;;;;22.46;63.10;101485.69;4975624;28;45360;-73
2021/09/05 08:06:27;;;;;;;;;21.33;19.00;;;;;22.50;62.78;101489.72;4975616;28;45524;-72
2021/09/05 08:08:52;;;;;;;;;21.00;18.25;;;;;22.49;62.59;101494.22;4975596;28;45276;-73
2021/09/05 08:11:18;;;;;;;;;20.00;17.00;;;;;22.50;62.64;101501.25;4975642;28;46746;-73
2021/09/05 08:13:43;;;;;;;;;19.00;16.25;;;;;22.50;62.54;101503.91;4975781;28;45353;-72
2021/09/05 08:16:08;;;;;;;;;15.50;12.25;;;;;22.54;63.00;101505.22;4975004;28;45558;-73
2021/09/05 08:18:37;;;;;;;;;14.50;14.00;;;;;22.57;62.14;101504.91;4975429;28;45273;-74
2021/09/05 08:21:04;;;;;;;;;16.75;15.75;;;;;22.63;62.21;101515.94;4975150;28;46228;-72
2021/09/05 08:23:30;;;;;;;;;15.50;14.00;;;;;22.63;62.13;101511.41;4974559;28;45326;-74
2021/09/05 08:25:55;;;;;;;;;18.25;15.25;;;;;22.63;61.89;101515.94;4975798;28;45453;-73
2021/09/05 08:28:21;;;;;;;;;16.75;15.25;;;;;22.62;62.12;101514.25;4975291;28;45666;-72
2021/09/05 08:30:48;;;;;;;;;16.00;15.00;;;;;22.67;61.83;101519.91;4975431;28;46175;-72
2021/09/05 08:33:15;;;;;;;;;16.00;15.25;;;;;22.68;61.76;101518.91;4975086;28;45405;-72
2021/09/05 08:35:40;;;;;;;;;13.25;11.00;;;;;22.68;61.40;101532.31;4974846;28;45512;-73
2021/09/05 08:38:05;;;;;;;;;13.25;10.75;;;;;22.70;61.81;101524.91;4974722;28;45409;-74
2021/09/05 08:40:36;;;;;;;;;19.75;16.75;;;;;22.71;61.65;101523.91;4975748;28;46006;-73
2021/09/05 08:43:02;;;;;;;;;14.50;14.00;;;;;22.72;61.65;101517.56;4974961;28;45420;-73
2021/09/05 08:45:27;;;;;;;;;15.00;13.25;;;;;22.74;61.75;101518.19;4974761;28;45463;-73
2021/09/05 08:47:53;;;;;;;;;15.25;12.50;;;;;22.76;61.59;101521.53;4975069;28;45955;-71
2021/09/05 08:50:19;;;;;;;;;13.25;13.25;;;;;22.81;61.13;101524.53;4975067;28;46368;-72
2021/09/05 08:52:44;;;;;;;;;16.00;14.00;;;;;22.99;61.74;101523.41;4989894;28;45491;-72
2021/09/05 08:55:10;;;;;;;;;16.50;12.50;;;;;23.23;61.08;101525.97;4973885;28;45597;-72
2021/09/05 08:57:36;;;;;;;;;12.75;12.25;;;;;23.49;60.63;101522.06;4975133;28;45380;-73
2021/09/05 09:00:02;;;;;;;;;16.25;14.00;;;;;23.76;60.46;101519.84;4974173;28;45397;-73
2021/09/05 09:02:47;;;;;;;;;11.00;8.25;;;;;24.04;59.83;101513.88;4974990;28;45439;-71
2021/09/05 09:05:13;;;;;;;;;15.50;12.00;;;;;24.30;59.02;101517.97;4975580;28;45500;-73
2021/09/05 09:07:48;;;;;;;;;13.75;12.50;;;;;24.50;58.46;101519.06;4974918;28;45393;-73
2021/09/05 09:10:15;;;;;;;;;14.25;11.25;;;;;24.63;58.55;101521.13;4989450;28;48021;-72
2021/09/05 09:12:48;;;;;;;;;11.00;10.50;;;;;24.72;57.64;101529.91;4974714;28;45507;-72
2021/09/05 09:15:16;;;;;;;;;13.25;11.50;;;;;24.73;57.92;101520.81;4974042;28;45549;-73
2021/09/05 09:17:42;;;;;;;;;12.00;11.00;;;;;24.76;58.03;101523.13;4959411;28;45320;-74
2021/09/05 09:20:08;;;;;;;;;12.00;11.00;;;;;24.74;57.15;101525.19;4975879;28;45463;-73
2021/09/05 09:22:33;;;;;;;;;13.00;10.75;;;;;24.70;56.89;101527.41;4975742;28;45308;-72
2021/09/05 09:24:59;;;;;;;;;15.00;12.50;;;;;24.64;57.11;101530.03;4977627;28;45369;-73
2021/09/05 09:27:25;;;;;;;;;13.50;11.00;;;;;24.60;57.24;101525.97;4976218;28;45484;-69
2021/09/05 09:29:54;;;;;;;;;10.75;9.00;;;;;24.57;56.50;101529.88;4975875;28;46194;-72
2021/09/05 09:32:23;;;;;;;;;11.75;9.00;;;;;24.52;57.45;101533.16;4975279;28;45338;-73
2021/09/05 09:34:50;;;;;;;;;9.00;8.50;;;;;24.44;57.12;101530.53;4974591;28;45269;-74
2021/09/05 09:37:20;;;;;;;;;10.00;10.00;;;;;24.42;57.31;101529.06;4974554;28;45558;-72
2021/09/05 09:39:58;;;;;;;;;6.00;5.75;;;;;24.39;57.48;101527.56;4976896;28;46294;-73
2021/09/05 09:42:33;;;;;;;;;10.25;10.00;;;;;24.36;56.77;101534.19;4976341;28;45581;-73
2021/09/05 09:45:00;;;;;;;;;11.75;11.25;;;;;24.35;56.87;101531.66;4978761;28;45392;-73
2021/09/05 09:47:36;;;;;;;;;8.00;8.00;;;;;24.30;56.77;101523.34;4977983;28;45305;-74
2021/09/05 09:50:02;;;;;;;;;11.75;8.75;;;;;24.29;57.23;101527.06;4977675;28;46385;-73
2021/09/05 09:52:29;;;;;;;;;11.00;10.00;;;;;24.30;56.91;101526.00;4977270;28;45490;-72
2021/09/05 09:54:55;;;;;;;;;11.50;9.00;;;;;24.32;57.31;101532.03;4977642;28;45471;-73
2021/09/05 09:57:20;;;;;;;;;10.00;8.50;;;;;24.32;57.05;101529.34;4976313;28;45523;-73
2021/09/05 09:59:45;;;;;;;;;13.25;10.75;;;;;24.32;57.32;101535.53;4977331;28;45358;-73
2021/09/05 10:02:17;;;;;;;;;9.00;9.00;;;;;24.36;57.50;101528.81;4976200;28;45411;-73
2021/09/05 10:04:44;;;;;;;;;9.75;8.75;;;;;24.41;56.83;101530.94;4977121;28;45693;-73
2021/09/05 10:07:10;;;;;;;;;17.00;14.75;;;;;24.46;57.24;101527.69;4977235;28;45476;-74
2021/09/05 10:09:36;;;;;;;;;19.75;14.00;;;;;24.51;56.93;101526.09;4977119;28;45487;-72
2021/09/05 10:12:03;;;;;;;;;11.75;11.00;;;;;24.57;57.23;101521.00;4977649;28;45146;-72
2021/09/05 10:14:29;;;;;;;;;9.00;9.00;;;;;24.67;57.09;101532.31;4977767;28;45247;-73
2021/09/05 10:16:55;;;;;;;;;8.00;8.00;;;;;24.70;56.06;101523.88;4978005;28;45447;-73
2021/09/05 10:19:21;;;;;;;;;10.75;10.00;;;;;24.74;56.10;101522.50;4976791;28;46163;-74
2021/09/05 10:21:47;;;;;;;;;8.75;8.75;;;;;24.78;56.29;101518.41;4976851;28;45689;-72
2021/09/05 10:24:16;;;;;;;;;9.50;9.50;;;;;24.83;55.79;101524.03;4993542;28;45522;-73
2021/09/05 10:27:03;;;;;;;;;12.50;10.25;;;;;24.88;55.84;101520.78;4961808;28;45384;-72
2021/09/05 10:29:29;;;;;;;;;13.00;9.50;;;;;24.94;55.43;101513.81;4975058;28;45944;-73
2021/09/05 10:31:54;;;;;;;;;13.00;9.50;;;;;24.97;55.29;101502.69;4977863;28;45361;-72
2021/09/05 10:34:34;;;;;;;;;9.25;9.25;;;;;25.01;56.06;101520.09;4976784;28;45310;-73
2021/09/05 10:37:11;;;;;;;;;15.00;11.75;;;;;25.13;56.16;101512.34;4976885;28;45511;-73
2021/09/05 10:39:56;;;;;;;;;7.25;5.00;;;;;25.20;55.36;101519.44;4976736;28;45313;-74
2021/09/05 10:42:23;;;;;;;;;10.50;10.50;;;;;25.27;55.41;101518.69;4976950;28;45381;-72
2021/09/05 10:45:10;;;;;;;;;11.75;10.50;;;;;25.32;54.65;101511.69;4977695;28;45516;-73
2021/09/05 10:47:44;;;;;;;;;11.00;11.00;;;;;25.32;54.89;101510.88;4977205;28;45706;-74
2021/09/05 10:50:33;;;;;;;;;14.00;11.00;;;;;25.43;54.48;101507.72;4972376;28;45561;-72
2021/09/05 10:53:20;;;;;;;;;14.75;12.50;;;;;25.49;54.68;101506.94;4975632;28;45388;-74
2021/09/05 10:56:17;;;;;;;;;13.75;11.00;;;;;25.53;54.22;101508.22;4976266;28;45245;-73
2021/09/05 10:59:05;;;;;;;;;13.00;12.25;;;;;25.59;54.89;101505.78;4976505;28;45306;-74
2021/09/05 11:01:36;;;;;;;;;10.00;8.25;;;;;25.65;54.11;101504.97;4975748;28;46498;-72
2021/09/05 11:04:17;;;;;;;;;10.00;10.00;;;;;25.68;54.27;101504.59;4975114;28;45468;-73
2021/09/05 11:06:43;;;;;;;;;12.75;10.25;;;;;25.70;53.83;101495.31;4976283;28;45524;-74